createdAt,value
2017-10-13T00:00:32.119Z,7.90
2017-10-13T00:02:59.666Z,7.15
2017-10-13T00:05:27.155Z,7.57
2017-10-13T00:07:54.654Z,11.55
2017-10-13T00:10:22.905Z,8.77
2017-10-13T00:12:50.398Z,4.37
2017-10-13T00:15:18.652Z,6.07
2017-10-13T00:17:46.949Z,3.55
2017-10-13T00:20:15.206Z,4.10
2017-10-13T00:22:43.463Z,6.90
2017-10-13T00:25:10.967Z,5.10
2017-10-13T00:27:38.481Z,5.75
2017-10-13T00:30:05.967Z,7.05
2017-10-13T00:32:34.230Z,10.75
2017-10-13T00:35:02.494Z,9.82
2017-10-13T00:37:30.144Z,16.05
2017-10-13T00:39:57.640Z,9.07
2017-10-13T00:42:25.905Z,11.18
2017-10-13T00:44:54.172Z,6.68
2017-10-13T00:47:21.750Z,10.68
2017-10-13T00:49:50.001Z,9.60
2017-10-13T00:52:17.483Z,7.07
2017-10-13T00:54:45.042Z,6.70
2017-10-13T00:57:12.601Z,9.95
2017-10-13T00:59:40.158Z,9.75
2017-10-13T01:02:07.651Z,6.40
2017-10-13T01:04:35.203Z,4.45
2017-10-13T01:07:02.696Z,5.60
2017-10-13T01:09:30.216Z,5.65
2017-10-13T01:11:58.462Z,2.90
2017-10-13T01:14:26.739Z,6.97
2017-10-13T01:16:55.022Z,4.37
2017-10-13T01:19:22.514Z,6.18
2017-10-13T01:21:50.011Z,5.35
2017-10-13T01:24:18.274Z,9.43
2017-10-13T01:26:45.876Z,7.37
2017-10-13T01:29:13.551Z,7.03
2017-10-13T01:31:41.094Z,9.05
2017-10-13T01:34:08.642Z,6.80
2017-10-13T01:36:36.945Z,10.18
2017-10-13T01:39:04.500Z,10.73
2017-10-13T01:41:32.035Z,6.68
2017-10-13T01:44:00.291Z,17.92
2017-10-13T01:46:27.870Z,8.38
2017-10-13T01:48:56.158Z,6.90
2017-10-13T01:51:23.678Z,8.93
2017-10-13T01:53:51.182Z,19.77
2017-10-13T01:56:18.675Z,9.60
2017-10-13T01:58:46.998Z,5.00
2017-10-13T02:01:14.560Z,4.95
2017-10-13T02:03:42.057Z,5.40
2017-10-13T02:06:09.549Z,11.93
2017-10-13T02:08:37.051Z,6.40
2017-10-13T02:11:04.555Z,8.25
2017-10-13T02:13:32.152Z,3.45
2017-10-13T02:15:59.642Z,5.03
2017-10-13T02:18:27.132Z,10.00
2017-10-13T02:20:54.627Z,17.50
2017-10-13T02:23:22.169Z,3.72
2017-10-13T02:25:50.448Z,11.23
2017-10-13T02:28:18.709Z,6.75
2017-10-13T02:30:46.998Z,3.95
2017-10-13T02:33:14.527Z,4.85
2017-10-13T02:35:42.041Z,5.50
2017-10-13T02:38:09.607Z,6.80
2017-10-13T02:40:37.109Z,8.07
2017-10-13T02:43:04.684Z,6.70
2017-10-13T02:45:32.975Z,8.02
2017-10-13T02:48:00.479Z,6.87
2017-10-13T02:50:28.079Z,7.50
2017-10-13T02:52:56.358Z,4.87
2017-10-13T02:55:23.929Z,5.78
2017-10-13T02:57:51.480Z,10.40
2017-10-13T03:00:18.990Z,8.30
2017-10-13T03:02:46.599Z,9.00
2017-10-13T03:05:14.115Z,10.63
2017-10-13T03:07:42.407Z,9.98
2017-10-13T03:10:09.889Z,5.62
2017-10-13T03:12:37.449Z,10.20
2017-10-13T03:15:05.008Z,5.37
2017-10-13T03:17:32.524Z,12.60
2017-10-13T03:20:00.049Z,8.73
2017-10-13T03:22:27.548Z,4.75
2017-10-13T03:24:55.047Z,11.35
2017-10-13T03:27:22.546Z,11.07
2017-10-13T03:29:50.046Z,6.40
2017-10-13T03:32:18.403Z,5.55
2017-10-13T03:34:45.982Z,8.27
2017-10-13T03:37:14.272Z,7.28
2017-10-13T03:39:41.774Z,3.45
2017-10-13T03:42:09.278Z,10.70
2017-10-13T03:44:36.842Z,10.13
2017-10-13T03:47:04.399Z,14.50
2017-10-13T03:49:31.956Z,5.90
2017-10-13T03:52:00.222Z,8.82
2017-10-13T03:54:28.508Z,8.48
2017-10-13T03:56:56.006Z,9.40
2017-10-13T03:59:23.512Z,6.12
2017-10-13T04:01:51.776Z,7.82
2017-10-13T04:04:19.269Z,4.93
2017-10-13T04:06:46.803Z,6.62
2017-10-13T04:09:15.166Z,9.38
2017-10-13T04:11:42.670Z,7.80
2017-10-13T04:14:10.178Z,14.48
2017-10-13T04:16:38.440Z,6.97
2017-10-13T04:19:05.935Z,6.95
2017-10-13T04:21:34.214Z,12.60
2017-10-13T04:24:01.778Z,5.65
2017-10-13T04:26:29.266Z,7.22
2017-10-13T04:28:56.768Z,12.82
2017-10-13T04:31:25.030Z,7.93
2017-10-13T04:33:52.533Z,8.50
2017-10-13T04:36:20.035Z,9.90
2017-10-13T04:38:47.539Z,7.78
2017-10-13T04:41:15.129Z,20.30
2017-10-13T04:43:42.627Z,13.27
2017-10-13T04:46:10.133Z,10.18
2017-10-13T04:48:37.697Z,19.33
2017-10-13T04:51:05.202Z,10.93
2017-10-13T04:53:32.691Z,7.47
2017-10-13T04:56:00.191Z,6.45
2017-10-13T04:58:27.687Z,5.18
2017-10-13T05:00:55.959Z,10.70
2017-10-13T05:03:24.222Z,7.75
2017-10-13T05:05:51.720Z,10.23
2017-10-13T05:08:19.184Z,12.10
2017-10-13T05:10:46.681Z,10.15
2017-10-13T05:13:14.947Z,8.30
2017-10-13T05:15:42.436Z,15.50
2017-10-13T05:18:10.682Z,10.85
2017-10-13T05:20:38.145Z,5.80
2017-10-13T05:23:05.614Z,11.35
2017-10-13T05:25:33.672Z,4.35
2017-10-13T05:28:01.136Z,6.85
2017-10-13T05:30:28.605Z,15.52
2017-10-13T05:32:56.081Z,5.93
2017-10-13T05:35:24.363Z,5.78
2017-10-13T05:37:51.837Z,8.63
2017-10-13T05:40:19.313Z,4.55
2017-10-13T05:42:46.813Z,10.48
2017-10-13T05:45:15.041Z,11.20
2017-10-13T05:47:42.504Z,17.92
2017-10-13T05:50:10.001Z,10.13
2017-10-13T05:52:38.234Z,12.70
2017-10-13T05:55:05.689Z,7.90
2017-10-13T05:57:33.153Z,11.68
2017-10-13T06:00:00.643Z,10.32
2017-10-13T06:02:28.121Z,5.95
2017-10-13T06:04:55.588Z,8.23
2017-10-13T06:07:23.073Z,11.65
2017-10-13T06:09:50.538Z,12.88
2017-10-13T06:12:17.993Z,7.00
2017-10-13T06:14:45.468Z,16.23
2017-10-13T06:17:12.923Z,8.68
2017-10-13T06:19:40.489Z,14.27
2017-10-13T06:22:07.953Z,5.93
2017-10-13T06:24:35.433Z,11.00
2017-10-13T06:27:02.903Z,9.50
2017-10-13T06:29:30.383Z,20.50
2017-10-13T06:31:57.869Z,4.90
2017-10-13T06:34:25.345Z,5.32
2017-10-13T06:36:53.603Z,9.82
2017-10-13T06:39:21.090Z,11.60
2017-10-13T06:41:48.570Z,15.40
2017-10-13T06:44:16.057Z,20.83
2017-10-13T06:46:43.547Z,3.50
2017-10-13T06:49:11.774Z,7.90
2017-10-13T06:51:39.254Z,10.32
2017-10-13T06:54:06.730Z,5.03
2017-10-13T06:56:34.284Z,10.27
2017-10-13T06:59:01.760Z,9.57
2017-10-13T07:01:29.237Z,7.60
2017-10-13T07:03:56.719Z,6.82
2017-10-13T07:06:24.181Z,9.63
2017-10-13T07:08:51.666Z,6.50
2017-10-13T07:11:19.146Z,8.40
2017-10-13T07:13:47.492Z,5.03
2017-10-13T07:16:15.050Z,12.55
2017-10-13T07:18:42.536Z,7.43
2017-10-13T07:21:10.842Z,12.77
2017-10-13T07:23:38.311Z,8.27
2017-10-13T07:26:05.784Z,11.88
2017-10-13T07:28:33.374Z,8.55
2017-10-13T07:31:01.615Z,11.73
2017-10-13T07:33:29.098Z,10.10
2017-10-13T07:35:57.350Z,11.77
2017-10-13T07:38:24.826Z,8.57
2017-10-13T07:40:52.400Z,8.30
2017-10-13T07:43:20.651Z,14.02
2017-10-13T07:45:48.234Z,12.48
2017-10-13T07:48:16.486Z,9.45
2017-10-13T07:50:44.053Z,9.50
2017-10-13T07:53:11.619Z,18.17
2017-10-13T07:55:39.862Z,11.10
2017-10-13T07:58:07.337Z,13.40
2017-10-13T08:00:34.903Z,12.23
2017-10-13T08:03:03.243Z,18.53
2017-10-13T08:05:30.732Z,16.40
2017-10-13T08:07:58.219Z,27.37
2017-10-13T08:10:26.464Z,15.30
2017-10-13T08:12:54.036Z,11.00
2017-10-13T08:15:22.307Z,8.10
2017-10-13T08:17:49.790Z,15.23
2017-10-13T08:20:18.090Z,14.77
2017-10-13T08:22:45.603Z,12.27
2017-10-13T08:25:13.157Z,11.60
2017-10-13T08:27:40.630Z,13.57
2017-10-13T08:30:08.875Z,14.20
2017-10-13T08:32:36.353Z,14.20
2017-10-13T08:35:04.604Z,17.37
2017-10-13T08:37:32.217Z,15.23
2017-10-13T08:39:59.736Z,10.10
2017-10-13T08:42:27.362Z,10.77
2017-10-13T08:44:54.817Z,10.40
2017-10-13T08:47:22.321Z,10.77
2017-10-13T08:49:50.560Z,17.43
2017-10-13T08:52:18.036Z,10.90
2017-10-13T08:54:45.552Z,10.90
2017-10-13T08:57:13.018Z,13.13
2017-10-13T08:59:41.379Z,8.23
2017-10-13T09:02:09.469Z,14.50
2017-10-13T09:04:36.982Z,17.60
2017-10-13T09:07:05.264Z,15.90
2017-10-13T09:09:33.609Z,21.50
2017-10-13T09:12:01.112Z,12.30
2017-10-13T09:14:28.591Z,15.90
2017-10-13T09:16:56.062Z,17.37
2017-10-13T09:19:24.342Z,15.30
2017-10-13T09:21:52.743Z,10.27
2017-10-13T09:24:20.352Z,10.47
2017-10-13T09:26:47.866Z,13.93
2017-10-13T09:29:15.345Z,9.83
2017-10-13T09:31:43.616Z,19.00
2017-10-13T09:34:12.018Z,14.67
2017-10-13T09:36:40.400Z,19.10
2017-10-13T09:39:07.981Z,19.97
2017-10-13T09:41:35.462Z,15.77
2017-10-13T09:44:02.931Z,17.60
2017-10-13T09:46:31.367Z,9.43
2017-10-13T09:48:58.893Z,9.07
2017-10-13T09:51:26.488Z,11.03
2017-10-13T09:53:54.240Z,12.47
2017-10-13T09:56:21.907Z,13.10
2017-10-13T09:58:49.447Z,7.70
2017-10-13T10:01:17.005Z,15.63
2017-10-13T10:03:44.634Z,18.30
2017-10-13T10:06:12.946Z,21.20
2017-10-13T10:08:40.522Z,16.20
2017-10-13T10:11:08.067Z,17.17
2017-10-13T10:13:35.540Z,21.10
2017-10-13T10:16:03.045Z,6.10
2017-10-13T10:18:31.449Z,26.20
2017-10-13T10:20:59.019Z,10.43
2017-10-13T10:23:26.582Z,12.40
2017-10-13T10:25:54.191Z,15.37
2017-10-13T10:28:21.902Z,24.33
2017-10-13T10:30:49.415Z,12.80
2017-10-13T10:33:16.882Z,14.20
2017-10-13T10:35:45.138Z,11.30
2017-10-13T10:38:13.385Z,12.23
2017-10-13T10:40:40.850Z,9.60
2017-10-13T10:43:08.439Z,18.30
2017-10-13T10:45:35.910Z,7.93
2017-10-13T10:48:04.142Z,10.03
2017-10-13T10:50:31.607Z,6.60
2017-10-13T10:52:59.092Z,11.80
2017-10-13T10:55:27.318Z,16.43
2017-10-13T10:57:54.788Z,7.77
2017-10-13T11:00:22.314Z,7.90
2017-10-13T11:02:49.781Z,11.53
2017-10-13T11:05:17.274Z,8.77
2017-10-13T11:07:44.787Z,11.67
2017-10-13T11:10:12.257Z,16.40
2017-10-13T11:12:39.724Z,20.87
2017-10-13T11:15:07.189Z,11.07
2017-10-13T11:17:34.655Z,10.90
2017-10-13T11:20:02.117Z,4.20
2017-10-13T11:22:29.685Z,13.63
2017-10-13T11:24:57.230Z,14.80
2017-10-13T11:27:24.794Z,11.00
2017-10-13T11:29:52.353Z,8.60
2017-10-13T11:32:19.969Z,8.90
2017-10-13T11:34:47.495Z,11.03
2017-10-13T11:37:15.726Z,11.77
2017-10-13T11:39:43.207Z,9.97
2017-10-13T11:42:10.678Z,5.90
2017-10-13T11:44:38.910Z,7.87
2017-10-13T11:47:06.385Z,7.43
2017-10-13T11:49:33.944Z,14.20
2017-10-13T11:52:01.412Z,10.23
2017-10-13T11:54:28.974Z,17.40
2017-10-13T11:56:56.634Z,14.03
2017-10-13T11:59:24.869Z,8.00
2017-10-13T12:01:52.378Z,10.83
2017-10-13T12:04:20.632Z,8.40
2017-10-13T12:06:48.922Z,19.87
2017-10-13T12:09:16.387Z,15.43
2017-10-13T12:11:44.625Z,15.23
2017-10-13T12:14:12.203Z,8.83
2017-10-13T12:16:41.182Z,7.43
2017-10-13T12:19:08.702Z,11.00
2017-10-13T12:21:36.571Z,17.27
2017-10-13T12:24:04.434Z,9.23
2017-10-13T12:26:31.891Z,15.03
2017-10-13T12:28:59.348Z,10.23
2017-10-13T12:31:26.837Z,10.87
2017-10-13T12:33:54.316Z,20.33
2017-10-13T12:36:23.409Z,12.67
2017-10-13T12:38:51.433Z,11.30
2017-10-13T12:41:18.947Z,14.73
2017-10-13T12:43:46.495Z,10.03
2017-10-13T12:46:15.460Z,25.07
2017-10-13T12:48:42.938Z,20.00
2017-10-13T12:51:10.410Z,13.33
2017-10-13T12:53:38.637Z,10.53
2017-10-13T12:56:06.117Z,23.77
2017-10-13T12:58:33.635Z,14.10
2017-10-13T13:01:01.189Z,10.70
2017-10-13T13:03:28.674Z,16.00
2017-10-13T13:05:56.130Z,13.13
2017-10-13T13:08:23.590Z,12.80
2017-10-13T13:10:51.050Z,15.50
2017-10-13T13:13:18.523Z,8.93
2017-10-13T13:15:46.086Z,8.23
2017-10-13T13:18:13.649Z,16.87
2017-10-13T13:20:41.200Z,18.00
2017-10-13T13:23:08.666Z,15.87
2017-10-13T13:25:37.646Z,14.23
2017-10-13T13:28:05.125Z,12.70
2017-10-13T13:30:33.355Z,11.53
2017-10-13T13:33:00.830Z,16.20
2017-10-13T13:35:28.298Z,6.67
2017-10-13T13:37:55.845Z,15.23
2017-10-13T13:40:24.315Z,14.93
2017-10-13T13:42:51.829Z,12.43
2017-10-13T13:45:19.406Z,10.00
2017-10-13T13:47:46.925Z,8.67
2017-10-13T13:50:15.193Z,15.77
2017-10-13T13:52:42.737Z,12.73
2017-10-13T13:55:10.226Z,10.00
2017-10-13T13:57:38.470Z,17.87
2017-10-13T14:00:05.945Z,13.43
2017-10-13T14:02:34.230Z,14.87
2017-10-13T14:05:02.491Z,12.30
2017-10-13T14:07:29.962Z,10.93
2017-10-13T14:09:58.187Z,13.40
2017-10-13T14:12:25.659Z,12.90
2017-10-13T14:14:53.119Z,9.13
2017-10-13T14:17:20.580Z,11.37
2017-10-13T14:19:48.054Z,11.40
2017-10-13T14:22:15.530Z,23.97
2017-10-13T14:24:43.060Z,13.20
2017-10-13T14:27:10.522Z,11.23
2017-10-13T14:29:38.023Z,14.23
2017-10-13T14:32:05.487Z,7.30
2017-10-13T14:34:33.053Z,16.73
2017-10-13T14:37:00.533Z,15.83
2017-10-13T14:39:28.010Z,18.90
2017-10-13T14:41:56.309Z,13.47
2017-10-13T14:44:23.786Z,11.40
2017-10-13T14:46:51.330Z,16.87
2017-10-13T14:49:18.803Z,12.97
2017-10-13T14:51:46.348Z,13.73
2017-10-13T14:54:13.825Z,12.97
2017-10-13T14:56:41.313Z,21.07
2017-10-13T14:59:08.790Z,14.03
2017-10-13T15:01:36.264Z,19.33
2017-10-13T15:04:04.504Z,32.20
2017-10-13T15:06:32.076Z,17.27
2017-10-13T15:08:59.645Z,20.13
2017-10-13T15:11:27.899Z,13.50
2017-10-13T15:13:56.871Z,7.87
2017-10-13T15:16:24.347Z,14.80
2017-10-13T15:18:51.871Z,13.10
2017-10-13T15:21:19.321Z,11.70
2017-10-13T15:23:46.796Z,13.13
2017-10-13T15:26:19.907Z,19.00
2017-10-13T15:28:53.044Z,17.97
2017-10-13T15:31:26.244Z,13.77
2017-10-13T15:36:54.281Z,14.00
2017-10-13T15:39:27.425Z,14.83
2017-10-13T15:42:12.666Z,8.73
2017-10-13T15:44:40.892Z,22.67
2017-10-13T15:47:14.026Z,21.73
2017-10-13T15:52:45.038Z,11.70
2017-10-13T15:55:12.518Z,21.73
2017-10-13T15:57:40.061Z,19.77
2017-10-13T16:00:07.535Z,15.30
2017-10-13T16:02:35.019Z,14.40
2017-10-13T16:05:03.258Z,11.60
2017-10-13T16:07:30.721Z,11.10
2017-10-13T16:09:58.199Z,17.23
2017-10-13T16:12:26.445Z,16.17
2017-10-13T16:14:53.970Z,19.70
2017-10-13T16:17:21.461Z,11.13
2017-10-13T16:19:49.031Z,16.30
2017-10-13T16:22:16.607Z,15.90
2017-10-13T16:24:44.858Z,12.53
2017-10-13T16:27:12.440Z,8.13
2017-10-13T16:29:40.695Z,15.70
2017-10-13T16:32:08.166Z,20.07
2017-10-13T16:34:36.416Z,11.53
2017-10-13T16:37:03.916Z,20.37
2017-10-13T16:39:32.162Z,11.20
2017-10-13T16:41:59.663Z,14.97
2017-10-13T16:44:27.141Z,12.43
2017-10-13T16:46:54.614Z,12.90
2017-10-13T16:49:22.127Z,9.90
2017-10-13T16:51:49.603Z,12.27
2017-10-13T16:54:17.060Z,11.63
2017-10-13T16:56:44.550Z,19.63
2017-10-13T16:59:12.024Z,20.33
2017-10-13T17:01:39.582Z,16.80
2017-10-13T17:04:07.138Z,10.60
2017-10-13T17:06:34.957Z,21.47
2017-10-13T17:09:02.488Z,17.00
2017-10-13T17:11:30.038Z,21.03
2017-10-13T17:13:58.273Z,13.13
2017-10-13T17:16:25.753Z,16.90
2017-10-13T17:18:53.264Z,14.37
2017-10-13T17:21:20.977Z,8.60
2017-10-13T17:23:49.214Z,13.43
2017-10-13T17:26:16.826Z,19.20
2017-10-13T17:28:45.188Z,10.83
2017-10-13T17:31:12.701Z,19.70
2017-10-13T17:33:40.186Z,18.43
2017-10-13T17:36:07.731Z,16.00
2017-10-13T17:38:35.477Z,11.80
2017-10-13T17:41:02.958Z,17.10
2017-10-13T17:43:30.654Z,13.47
2017-10-13T17:45:58.896Z,13.07
2017-10-13T17:48:26.605Z,12.53
2017-10-13T17:50:54.936Z,16.00
2017-10-13T17:53:22.426Z,11.13
2017-10-13T17:55:49.927Z,13.83
2017-10-13T17:58:17.418Z,10.70
2017-10-13T18:00:44.939Z,14.37
2017-10-13T18:03:12.419Z,14.83
2017-10-13T18:05:39.954Z,8.57
2017-10-13T18:08:07.438Z,15.40
2017-10-13T18:10:34.924Z,19.07
2017-10-13T18:13:02.428Z,17.13
2017-10-13T18:15:29.933Z,10.33
2017-10-13T18:17:57.516Z,15.43
2017-10-13T18:20:25.035Z,10.60
2017-10-13T18:22:52.538Z,10.70
2017-10-13T18:25:20.079Z,16.90
2017-10-13T18:27:48.342Z,18.87
2017-10-13T18:30:15.830Z,16.73
2017-10-13T18:32:43.313Z,18.20
2017-10-13T18:35:10.823Z,18.13
2017-10-13T18:37:39.095Z,23.67
2017-10-13T18:40:06.620Z,13.70
2017-10-13T18:42:34.135Z,19.13
2017-10-13T18:45:01.608Z,20.67
2017-10-13T18:47:29.075Z,15.93
2017-10-13T18:49:56.540Z,16.83
2017-10-13T18:52:24.017Z,16.23
2017-10-13T18:54:51.495Z,16.20
2017-10-13T18:57:19.038Z,17.27
2017-10-13T18:59:47.301Z,16.33
2017-10-13T19:02:14.781Z,14.33
2017-10-13T19:04:43.771Z,23.80
2017-10-13T19:07:12.182Z,13.93
2017-10-13T19:09:39.654Z,22.53
2017-10-13T19:12:07.141Z,15.63
2017-10-13T19:14:34.610Z,18.37
2017-10-13T19:17:02.082Z,20.40
2017-10-13T19:19:30.339Z,21.60
2017-10-13T19:21:57.947Z,18.13
2017-10-13T19:24:25.451Z,13.10
2017-10-13T19:26:52.930Z,18.80
2017-10-13T19:29:20.503Z,29.03
2017-10-13T19:31:48.759Z,16.63
2017-10-13T19:34:16.352Z,22.30
2017-10-13T19:36:43.838Z,18.00
2017-10-13T19:39:11.343Z,21.60
2017-10-13T19:41:39.602Z,15.83
2017-10-13T19:44:07.099Z,21.67
2017-10-13T19:46:34.630Z,25.83
2017-10-13T19:49:02.201Z,22.83
2017-10-13T19:51:30.452Z,22.60
2017-10-13T19:53:58.029Z,30.93
2017-10-13T19:56:26.276Z,21.67
2017-10-13T19:58:53.749Z,28.77
2017-10-13T20:01:21.306Z,24.20
2017-10-13T20:03:48.796Z,32.23
2017-10-13T20:06:17.048Z,21.13
2017-10-13T20:08:44.520Z,23.93
2017-10-13T20:11:12.789Z,19.80
2017-10-13T20:13:41.140Z,25.70
2017-10-13T20:16:08.613Z,26.80
2017-10-13T20:18:36.072Z,36.57
2017-10-13T20:21:04.488Z,31.90
2017-10-13T20:23:31.982Z,29.97
2017-10-13T20:25:59.632Z,28.23
2017-10-13T20:28:27.134Z,22.43
2017-10-13T20:30:55.402Z,29.70
2017-10-13T20:33:22.887Z,32.17
2017-10-13T20:35:50.422Z,25.63
2017-10-13T20:38:18.661Z,26.53
2017-10-13T20:40:46.256Z,23.17
2017-10-13T20:43:14.538Z,21.67
2017-10-13T20:45:42.773Z,22.23
2017-10-13T20:48:10.264Z,34.47
2017-10-13T20:50:38.507Z,34.43
2017-10-13T20:53:05.973Z,23.77
2017-10-13T20:55:34.247Z,26.07
2017-10-13T20:58:01.726Z,29.83
2017-10-13T21:00:29.281Z,33.00
2017-10-13T21:02:57.557Z,41.27
2017-10-13T21:05:25.070Z,23.43
2017-10-13T21:07:52.703Z,25.37
2017-10-13T21:10:20.174Z,24.97
2017-10-13T21:12:47.687Z,27.33
2017-10-13T21:15:15.208Z,26.47
2017-10-13T21:17:42.690Z,34.23
2017-10-13T21:20:10.295Z,33.63
2017-10-13T21:22:37.811Z,29.87
2017-10-13T21:25:06.069Z,31.27
2017-10-13T21:27:33.538Z,34.97
2017-10-13T21:30:01.025Z,32.63
2017-10-13T21:32:29.274Z,32.67
2017-10-13T21:34:56.838Z,23.00
2017-10-13T21:37:25.166Z,27.90
2017-10-13T21:39:52.739Z,26.23
2017-10-13T21:42:20.336Z,27.17
2017-10-13T21:44:49.324Z,32.37
2017-10-13T21:47:16.988Z,24.63
2017-10-13T21:49:44.488Z,22.90
2017-10-13T21:52:11.968Z,36.33
2017-10-13T21:54:39.451Z,25.03
2017-10-13T21:57:06.914Z,24.43
2017-10-13T21:59:34.397Z,28.87
2017-10-13T22:02:03.008Z,23.97
2017-10-13T22:04:30.487Z,24.47
2017-10-13T22:06:57.963Z,34.33
2017-10-13T22:09:25.446Z,28.47
2017-10-13T22:11:53.753Z,30.33
2017-10-13T22:14:21.234Z,28.87
2017-10-13T22:16:48.730Z,24.57
2017-10-13T22:19:16.987Z,29.00
2017-10-13T22:21:44.475Z,26.70
2017-10-13T22:24:12.645Z,32.63
2017-10-13T22:26:40.874Z,27.37
2017-10-13T22:29:08.345Z,26.13
2017-10-13T22:31:35.814Z,31.27
2017-10-13T22:34:03.295Z,25.33
2017-10-13T22:36:30.774Z,21.53
2017-10-13T22:38:58.276Z,21.17
2017-10-13T22:41:25.937Z,21.93
2017-10-13T22:43:53.417Z,27.40
2017-10-13T22:46:21.712Z,27.90
2017-10-13T22:48:49.182Z,19.70
2017-10-13T22:51:16.684Z,34.63
2017-10-13T22:53:44.935Z,22.20
2017-10-13T22:56:12.408Z,20.80
2017-10-13T22:58:39.878Z,32.43
2017-10-13T23:01:07.358Z,25.33
2017-10-13T23:03:35.606Z,29.03
2017-10-13T23:06:03.159Z,22.63
2017-10-13T23:08:30.740Z,21.30
2017-10-13T23:10:59.020Z,22.17
2017-10-13T23:13:27.277Z,29.63
2017-10-13T23:15:54.754Z,29.70
2017-10-13T23:18:23.019Z,27.97
2017-10-13T23:20:50.477Z,21.40
2017-10-13T23:23:18.728Z,25.27
2017-10-13T23:25:46.255Z,21.07
2017-10-13T23:28:13.736Z,25.07
2017-10-13T23:30:41.201Z,23.73
2017-10-13T23:33:08.691Z,26.13
2017-10-13T23:35:36.923Z,26.17
2017-10-13T23:38:04.426Z,23.23
2017-10-13T23:40:33.029Z,21.27
2017-10-13T23:43:00.541Z,31.77
2017-10-13T23:45:28.122Z,25.73
2017-10-13T23:47:56.369Z,36.73
2017-10-13T23:50:24.103Z,25.00
2017-10-13T23:52:51.604Z,24.50
2017-10-13T23:55:19.155Z,18.33
2017-10-13T23:57:47.426Z,16.70
